createdAt,value
2022-11-10T00:07:30.980Z,98725.97
2022-11-10T00:10:16.796Z,98716.22
2022-11-10T00:13:03.748Z,98712.53
2022-11-10T00:16:07.635Z,98710.50
2022-11-10T00:18:53.300Z,98712.19
2022-11-10T00:21:38.977Z,98711.47
2022-11-10T00:24:24.936Z,98706.72
2022-11-10T00:27:10.453Z,98706.59
2022-11-10T00:29:56.167Z,98709.81
2022-11-10T00:32:41.769Z,98707.91
2022-11-10T00:35:27.181Z,98705.00
2022-11-10T00:38:12.443Z,98694.19
2022-11-10T00:41:00.123Z,98701.69
2022-11-10T00:43:45.757Z,98701.34
2022-11-10T00:46:30.807Z,98694.59
2022-11-10T00:49:16.170Z,98700.16
2022-11-10T00:52:01.995Z,98698.72
2022-11-10T00:54:47.250Z,98700.34
2022-11-10T00:57:32.784Z,98698.53
2022-11-10T01:00:18.411Z,98690.94
2022-11-10T01:03:03.974Z,98688.28
2022-11-10T01:05:49.420Z,98685.47
2022-11-10T01:08:34.889Z,98685.53
2022-11-10T01:11:24.768Z,98687.00
2022-11-10T01:14:10.364Z,98683.25
2022-11-10T01:16:56.013Z,98696.00
2022-11-10T01:19:42.298Z,98690.91
2022-11-10T01:22:27.889Z,98687.47
2022-11-10T01:25:13.358Z,98688.91
2022-11-10T01:27:58.980Z,98686.31
2022-11-10T01:30:44.614Z,98688.84
2022-11-10T01:33:30.301Z,98683.66
2022-11-10T01:36:16.043Z,98681.19
2022-11-10T01:39:01.893Z,98686.75
2022-11-10T01:41:47.363Z,98681.47
2022-11-10T01:44:35.261Z,98675.50
2022-11-10T01:47:20.635Z,98683.25
2022-11-10T01:50:06.941Z,98674.78
2022-11-10T01:52:56.831Z,98678.25
2022-11-10T01:55:44.735Z,98686.00
2022-11-10T01:58:34.174Z,98682.44
2022-11-10T02:01:19.724Z,98672.25
2022-11-10T02:04:08.570Z,98676.31
2022-11-10T02:06:55.050Z,98670.25
2022-11-10T02:09:40.540Z,98681.94
2022-11-10T02:12:38.197Z,98678.69
2022-11-10T02:15:24.475Z,98676.19
2022-11-10T02:18:09.812Z,98679.34
2022-11-10T02:20:55.501Z,98684.38
2022-11-10T02:23:43.386Z,98686.66
2022-11-10T02:26:30.152Z,98683.75
2022-11-10T02:29:15.812Z,98687.31
2022-11-10T02:32:01.168Z,98680.69
2022-11-10T02:34:46.542Z,98678.91
2022-11-10T02:37:32.418Z,98684.53
2022-11-10T02:40:17.946Z,98682.91
2022-11-10T02:43:11.071Z,98676.59
2022-11-10T02:45:56.583Z,98680.84
2022-11-10T02:48:42.316Z,98685.25
2022-11-10T02:51:27.520Z,98682.38
2022-11-10T02:54:12.840Z,98681.56
2022-11-10T02:56:58.285Z,98684.31
2022-11-10T02:59:43.414Z,98689.44
2022-11-10T03:02:32.232Z,98680.94
2022-11-10T03:05:17.821Z,98679.06
2022-11-10T03:08:03.949Z,98675.00
2022-11-10T03:10:53.687Z,98674.03
2022-11-10T03:13:58.972Z,98678.31
2022-11-10T03:16:44.468Z,98679.06
2022-11-10T03:19:30.159Z,98681.44
2022-11-10T03:22:15.675Z,98682.16
2022-11-10T03:25:00.769Z,98679.88
2022-11-10T03:27:46.404Z,98679.16
2022-11-10T03:30:31.685Z,98685.00
2022-11-10T03:33:17.434Z,98675.09
2022-11-10T03:36:03.044Z,98676.31
2022-11-10T03:38:48.755Z,98694.19
2022-11-10T03:41:34.155Z,98686.19
2022-11-10T03:44:19.476Z,98687.41
2022-11-10T03:47:05.325Z,98687.53
2022-11-10T03:49:50.910Z,98687.56
2022-11-10T03:52:40.492Z,98690.53
2022-11-10T03:55:25.673Z,98693.09
2022-11-10T03:58:11.167Z,98685.03
2022-11-10T04:00:57.485Z,98696.84
2022-11-10T04:03:46.206Z,98689.78
2022-11-10T04:06:52.769Z,98696.63
2022-11-10T04:09:38.348Z,98699.28
2022-11-10T04:12:42.207Z,98697.94
2022-11-10T04:15:42.428Z,98694.53
2022-11-10T04:18:29.882Z,98693.50
2022-11-10T04:21:15.714Z,98699.91
2022-11-10T04:24:00.896Z,98695.00
2022-11-10T04:26:47.594Z,98694.66
2022-11-10T04:29:33.172Z,98701.34
2022-11-10T04:32:18.985Z,98701.22
2022-11-10T04:35:04.528Z,98704.44
2022-11-10T04:37:50.257Z,98703.38
2022-11-10T04:40:35.409Z,98705.63
2022-11-10T04:43:21.727Z,98713.84
2022-11-10T04:46:13.393Z,98700.63
2022-11-10T04:48:59.672Z,98716.97
2022-11-10T04:51:45.115Z,98700.16
2022-11-10T04:54:30.607Z,98706.94
2022-11-10T04:57:16.029Z,98705.75
2022-11-10T05:00:01.536Z,98703.34
2022-11-10T05:02:46.877Z,98710.03
2022-11-10T05:05:32.303Z,98710.50
2022-11-10T05:08:18.044Z,98711.00
2022-11-10T05:11:03.335Z,98717.56
2022-11-10T05:13:48.662Z,98713.97
2022-11-10T05:16:34.053Z,98720.03
2022-11-10T05:19:19.648Z,98724.66
2022-11-10T05:22:07.044Z,98718.84
2022-11-10T05:24:52.483Z,98727.91
2022-11-10T05:27:37.790Z,98722.63
2022-11-10T05:30:23.343Z,98739.19
2022-11-10T05:33:08.664Z,98740.88
2022-11-10T05:35:53.795Z,98743.72
2022-11-10T05:38:43.160Z,98741.31
2022-11-10T05:41:29.229Z,98749.47
2022-11-10T05:44:14.608Z,98751.16
2022-11-10T05:47:00.364Z,98756.16
2022-11-10T05:49:45.989Z,98763.97
2022-11-10T05:52:31.379Z,98766.09
2022-11-10T05:55:19.560Z,98768.19
2022-11-10T05:58:04.798Z,98773.69
2022-11-10T06:00:50.251Z,98778.97
2022-11-10T06:03:35.384Z,98774.75
2022-11-10T06:06:20.792Z,98788.84
2022-11-10T06:09:05.899Z,98779.81
2022-11-10T06:11:51.245Z,98793.19
2022-11-10T06:14:36.413Z,98787.84
2022-11-10T06:17:21.737Z,98794.41
2022-11-10T06:20:07.801Z,98801.22
2022-11-10T06:23:13.512Z,98797.47
2022-11-10T06:25:58.878Z,98797.94
2022-11-10T06:28:44.364Z,98798.81
2022-11-10T06:31:29.850Z,98802.06
2022-11-10T06:34:15.053Z,98796.25
2022-11-10T06:37:00.132Z,98800.34
2022-11-10T06:39:46.604Z,98803.47
2022-11-10T06:42:32.340Z,98806.25
2022-11-10T06:45:17.730Z,98811.47
2022-11-10T06:48:08.134Z,98814.91
2022-11-10T06:50:53.783Z,98809.31
2022-11-10T06:53:39.319Z,98812.84
2022-11-10T06:56:24.964Z,98807.75
2022-11-10T06:59:10.245Z,98810.94
2022-11-10T07:01:55.568Z,98809.97
2022-11-10T07:04:40.953Z,98811.31
2022-11-10T07:07:26.080Z,98814.97
2022-11-10T07:10:11.559Z,98817.91
2022-11-10T07:12:58.667Z,98810.25
2022-11-10T07:15:44.413Z,98808.75
2022-11-10T07:18:29.589Z,98808.44
2022-11-10T07:21:15.273Z,98815.78
2022-11-10T07:24:00.495Z,98809.78
2022-11-10T07:26:45.845Z,98808.84
2022-11-10T07:29:31.232Z,98806.28
2022-11-10T07:32:16.680Z,98813.25
2022-11-10T07:35:02.074Z,98815.97
2022-11-10T07:37:47.608Z,98814.03
2022-11-10T07:40:33.847Z,98807.22
2022-11-10T07:43:20.887Z,98815.34
2022-11-10T07:46:06.819Z,98821.94
2022-11-10T07:48:52.138Z,98821.06
2022-11-10T07:51:37.591Z,98823.34
2022-11-10T07:54:23.193Z,98830.34
2022-11-10T07:57:08.390Z,98830.78
2022-11-10T07:59:57.835Z,98831.50
2022-11-10T08:02:43.881Z,98830.31
2022-11-10T08:05:29.593Z,98830.13
2022-11-10T08:08:15.316Z,98827.03
2022-11-10T08:11:00.570Z,98831.47
2022-11-10T08:13:46.264Z,98832.91
2022-11-10T08:16:31.779Z,98832.38
2022-11-10T08:19:17.084Z,98837.38
2022-11-10T08:22:02.618Z,98834.44
2022-11-10T08:24:47.863Z,98831.28
2022-11-10T08:27:33.643Z,98821.75
2022-11-10T08:30:19.244Z,98828.72
2022-11-10T08:33:06.665Z,98829.47
2022-11-10T08:35:52.746Z,98833.91
2022-11-10T08:38:38.134Z,98825.47
2022-11-10T08:41:23.423Z,98829.13
2022-11-10T08:44:10.984Z,98839.28
2022-11-10T08:46:56.363Z,98831.13
2022-11-10T08:49:41.840Z,98833.50
2022-11-10T08:52:27.787Z,98825.22
2022-11-10T08:55:13.650Z,98831.63
2022-11-10T08:58:04.101Z,98832.19
2022-11-10T09:00:50.096Z,98830.25
2022-11-10T09:03:35.185Z,98834.78
2022-11-10T09:06:20.754Z,98830.31
2022-11-10T09:09:06.027Z,98827.31
2022-11-10T09:11:51.479Z,98825.38
2022-11-10T09:14:37.072Z,98828.72
2022-11-10T09:17:22.638Z,98826.78
2022-11-10T09:20:09.586Z,98832.19
2022-11-10T09:22:55.247Z,98835.63
2022-11-10T09:25:41.707Z,98828.19
2022-11-10T09:28:27.200Z,98821.88
2022-11-10T09:31:12.500Z,98819.00
2022-11-10T09:33:59.364Z,98822.25
2022-11-10T09:36:44.771Z,98809.69
2022-11-10T09:39:30.053Z,98819.97
2022-11-10T09:42:35.754Z,98818.31
2022-11-10T10:18:07.358Z,98816.47
2022-11-10T10:20:58.937Z,98808.44
2022-11-10T10:24:11.395Z,98816.47
2022-11-10T10:27:00.953Z,98813.00
2022-11-10T10:29:49.333Z,98804.69
2022-11-10T10:32:35.459Z,98802.34
2022-11-10T10:35:21.097Z,98803.03
2022-11-10T10:38:23.181Z,98796.88
2022-11-10T10:41:24.080Z,98796.19
2022-11-10T10:44:18.901Z,98794.72
2022-11-10T10:47:04.997Z,98792.69
2022-11-10T10:49:50.433Z,98787.31
2022-11-10T10:52:35.975Z,98787.16
2022-11-10T10:55:21.218Z,98788.50
2022-11-10T10:58:45.308Z,98784.03
2022-11-10T11:01:37.642Z,98783.47
2022-11-10T11:04:37.591Z,98779.44
2022-11-10T11:07:25.267Z,98780.28
2022-11-10T11:10:34.764Z,98768.19
2022-11-10T11:13:26.042Z,98779.59
2022-11-10T11:16:12.862Z,98776.84
2022-11-10T11:18:58.996Z,98777.41
2022-11-10T11:22:05.552Z,98771.16
2022-11-10T11:24:59.862Z,98777.88
2022-11-10T11:27:49.330Z,98779.44
2022-11-10T11:31:10.297Z,98770.56
2022-11-10T11:33:55.545Z,98772.69
2022-11-10T11:36:57.290Z,98768.22
2022-11-10T11:40:10.530Z,98765.00
2022-11-10T11:43:16.765Z,98764.66
2022-11-10T11:46:11.570Z,98765.13
2022-11-10T11:49:18.263Z,98769.78
2022-11-10T11:52:28.544Z,98775.38
2022-11-10T11:55:43.912Z,98771.53
2022-11-10T11:59:04.960Z,98774.00
2022-11-10T12:02:03.871Z,98772.91
2022-11-10T12:05:07.918Z,98780.00
2022-11-10T12:08:05.085Z,98782.19
2022-11-10T12:10:50.511Z,98783.13
2022-11-10T12:14:03.832Z,98774.81
2022-11-10T12:17:02.427Z,98774.34
2022-11-10T12:20:08.506Z,98779.53
2022-11-10T12:23:14.274Z,98773.41
2022-11-10T12:26:08.357Z,98784.41
2022-11-10T12:29:18.125Z,98782.91
2022-11-10T12:32:15.974Z,98776.44
2022-11-10T12:35:22.897Z,98777.31
2022-11-10T12:38:23.603Z,98782.00
2022-11-10T12:41:14.799Z,98778.22
2022-11-10T12:44:22.814Z,98779.53
2022-11-10T12:47:11.570Z,98785.72
2022-11-10T12:50:28.254Z,98778.44
2022-11-10T12:53:35.217Z,98792.41
2022-11-10T12:56:23.690Z,98791.06
2022-11-10T12:59:21.390Z,98794.88
2022-11-10T13:02:32.815Z,98792.66
2022-11-10T13:05:23.899Z,98807.00
2022-11-10T13:08:27.554Z,98801.16
2022-11-10T13:11:12.690Z,98808.81
2022-11-10T13:14:00.744Z,98803.91
2022-11-10T13:16:54.147Z,98800.81
2022-11-10T13:19:47.573Z,98800.88
2022-11-10T13:22:42.712Z,98809.41
2022-11-10T13:25:37.469Z,98813.50
2022-11-10T13:28:47.366Z,98811.69
2022-11-10T13:31:32.651Z,98816.75
2022-11-10T13:34:32.881Z,98809.97
2022-11-10T13:37:30.182Z,98810.34
2022-11-10T13:40:24.474Z,98816.22
2022-11-10T13:43:24.151Z,98811.00
2022-11-10T13:46:09.726Z,98829.66
2022-11-10T13:49:06.382Z,98818.53
2022-11-10T13:52:06.459Z,98817.47
2022-11-10T13:55:15.740Z,98821.53
2022-11-10T13:58:28.968Z,98813.03
2022-11-10T14:01:17.631Z,98820.28
2022-11-10T14:04:06.231Z,98823.03
2022-11-10T14:06:55.086Z,98817.13
2022-11-10T14:09:49.101Z,98819.91
2022-11-10T14:12:49.155Z,98821.88
2022-11-10T14:15:44.450Z,98821.91
2022-11-10T14:18:41.675Z,98824.44
2022-11-10T14:21:58.119Z,98821.50
2022-11-10T14:25:03.670Z,98826.69
2022-11-10T14:27:51.516Z,98832.06
2022-11-10T14:30:40.604Z,98831.03
2022-11-10T14:33:28.294Z,98837.53
2022-11-10T14:36:14.056Z,98830.31
2022-11-10T14:39:07.807Z,98831.56
2022-11-10T14:41:53.912Z,98830.88
2022-11-10T14:44:39.368Z,98830.16
2022-11-10T14:47:27.878Z,98832.28
2022-11-10T14:50:13.728Z,98826.59
2022-11-10T14:53:07.965Z,98823.97
2022-11-10T14:55:55.160Z,98834.41
2022-11-10T14:58:43.122Z,98840.91
2022-11-10T15:01:38.937Z,98832.31
2022-11-10T15:04:30.785Z,98836.78
2022-11-10T15:07:16.470Z,98838.00
2022-11-10T15:10:26.700Z,98840.38
2022-11-10T15:13:14.907Z,98844.13
2022-11-10T15:16:35.023Z,98848.84
2022-11-10T15:19:38.746Z,98846.88
2022-11-10T15:22:32.752Z,98850.50
2022-11-10T15:25:21.569Z,98851.56
2022-11-10T15:28:18.714Z,98854.91
2022-11-10T15:31:07.572Z,98855.31
2022-11-10T15:34:01.558Z,98860.44
2022-11-10T15:36:47.076Z,98863.63
2022-11-10T15:39:32.545Z,98867.63
2022-11-10T15:42:21.468Z,98860.97
2022-11-10T15:45:07.272Z,98861.97
2022-11-10T15:47:52.604Z,98864.88
2022-11-10T15:50:38.382Z,98861.59
2022-11-10T15:53:30.288Z,98865.91
2022-11-10T15:56:18.321Z,98872.44
2022-11-10T15:59:04.244Z,98872.09
2022-11-10T16:01:50.725Z,98871.25
2022-11-10T16:04:36.047Z,98867.78
2022-11-10T16:07:21.757Z,98868.03
2022-11-10T16:10:07.169Z,98869.00
2022-11-10T16:12:52.408Z,98869.72
2022-11-10T16:15:39.015Z,98894.31
2022-11-10T16:18:27.592Z,98876.44
2022-11-10T16:21:14.639Z,98885.44
2022-11-10T16:24:00.129Z,98887.09
2022-11-10T16:26:45.850Z,98892.66
2022-11-10T16:29:32.600Z,98888.72
2022-11-10T16:32:18.143Z,98888.84
2022-11-10T16:35:04.047Z,98894.09
2022-11-10T16:37:49.816Z,98898.97
2022-11-10T16:40:35.033Z,98888.28
2022-11-10T16:43:20.829Z,98898.09
2022-11-10T16:46:18.461Z,98899.25
2022-11-10T16:49:06.416Z,98894.75
2022-11-10T16:51:52.131Z,98897.88
2022-11-10T16:54:37.588Z,98900.63
2022-11-10T16:57:22.901Z,98903.88
2022-11-10T17:00:09.699Z,98905.81
2022-11-10T17:03:02.125Z,98904.69
2022-11-10T17:05:48.551Z,98908.81
2022-11-10T17:08:36.025Z,98905.84
2022-11-10T17:11:21.755Z,98899.94
2022-11-10T17:14:10.709Z,98914.06
2022-11-10T17:16:56.777Z,98907.47
2022-11-10T17:19:42.923Z,98911.00
2022-11-10T17:22:33.608Z,98916.19
2022-11-10T17:25:26.272Z,98914.31
2022-11-10T17:28:16.078Z,98914.75
2022-11-10T17:31:01.380Z,98910.94
2022-11-10T17:33:46.933Z,98908.44
2022-11-10T17:36:34.453Z,98905.66
2022-11-10T17:39:20.042Z,98905.94
2022-11-10T17:42:05.652Z,98904.72
2022-11-10T17:44:50.735Z,98911.34
2022-11-10T17:47:36.079Z,98916.69
2022-11-10T17:50:23.615Z,98902.75
2022-11-10T17:53:23.896Z,98897.88
2022-11-10T17:56:09.540Z,98899.38
2022-11-10T17:58:55.276Z,98905.66
2022-11-10T18:01:40.998Z,98900.53
2022-11-10T18:04:26.693Z,98906.91
2022-11-10T18:07:11.866Z,98900.91
2022-11-10T18:09:57.126Z,98904.38
2022-11-10T18:12:42.837Z,98903.16
2022-11-10T18:15:28.448Z,98914.78
2022-11-10T18:18:15.686Z,98902.72
2022-11-10T18:21:01.590Z,98909.00
2022-11-10T18:23:47.116Z,98910.34
2022-11-10T18:26:32.974Z,98908.03
2022-11-10T18:29:18.309Z,98920.66
2022-11-10T18:32:03.879Z,98919.72
2022-11-10T18:34:49.709Z,98916.66
2022-11-10T18:37:38.915Z,98914.63
2022-11-10T18:40:25.146Z,98920.84
2022-11-10T18:43:10.868Z,98927.69
2022-11-10T18:45:56.564Z,98927.28
2022-11-10T18:48:42.628Z,98932.03
2022-11-10T18:51:27.762Z,98934.13
2022-11-10T18:54:13.368Z,98931.84
2022-11-10T18:56:58.737Z,98937.94
2022-11-10T18:59:45.044Z,98933.13
2022-11-10T19:02:30.353Z,98938.25
2022-11-10T19:05:15.851Z,98938.84
2022-11-10T19:08:01.321Z,98933.38
2022-11-10T19:10:46.811Z,98941.06
2022-11-10T19:13:32.409Z,98938.84
2022-11-10T19:16:19.308Z,98937.25
2022-11-10T19:19:04.758Z,98936.91
2022-11-10T19:21:50.200Z,98935.25
2022-11-10T19:24:53.631Z,98942.44
2022-11-10T19:27:41.524Z,98941.09
2022-11-10T19:30:26.832Z,98938.06
2022-11-10T19:33:12.519Z,98932.34
2022-11-10T19:36:03.484Z,98935.38
2022-11-10T19:38:49.305Z,98949.59
2022-11-10T19:41:36.073Z,98944.03
2022-11-10T19:44:21.920Z,98943.06
2022-11-10T19:47:07.622Z,98945.19
2022-11-10T19:49:52.981Z,98946.44
2022-11-10T19:52:38.687Z,98957.31
2022-11-10T19:55:24.381Z,98948.13
2022-11-10T19:58:10.095Z,98957.28
2022-11-10T20:00:56.223Z,98961.25
2022-11-10T20:03:41.671Z,98957.78
2022-11-10T20:06:27.108Z,98962.47
2022-11-10T20:09:12.668Z,98963.16
2022-11-10T20:11:58.004Z,98956.94
2022-11-10T20:14:43.284Z,98959.81
2022-11-10T20:17:28.638Z,98966.75
2022-11-10T20:20:14.948Z,98963.63
2022-11-10T20:23:04.873Z,98965.44
2022-11-10T20:25:50.315Z,98953.84
2022-11-10T20:28:37.556Z,98963.28
2022-11-10T20:31:24.464Z,98952.97
2022-11-10T20:34:09.997Z,98951.06
2022-11-10T20:36:55.803Z,98955.34
2022-11-10T20:39:41.352Z,98947.13
2022-11-10T20:42:26.986Z,98949.75
2022-11-10T20:45:12.229Z,98945.22
2022-11-10T20:47:58.815Z,98950.63
2022-11-10T20:50:44.026Z,98943.78
2022-11-10T20:53:29.775Z,98947.03
2022-11-10T20:56:15.884Z,98957.38
2022-11-10T20:59:01.429Z,98960.00
2022-11-10T21:01:47.232Z,98959.09
2022-11-10T21:04:32.781Z,98958.13
2022-11-10T21:07:18.461Z,98964.22
2022-11-10T21:10:04.283Z,98969.13
2022-11-10T21:12:49.837Z,98972.59
2022-11-10T21:15:39.065Z,98959.59
2022-11-10T21:18:26.928Z,98966.28
2022-11-10T21:21:23.852Z,98966.13
2022-11-10T21:24:10.289Z,98973.78
2022-11-10T21:26:57.193Z,98972.22
2022-11-10T21:29:42.489Z,98971.03
2022-11-10T21:32:28.153Z,98976.31
2022-11-10T21:35:13.869Z,98975.00
2022-11-10T21:37:59.294Z,98978.44
2022-11-10T21:40:44.994Z,98979.16
2022-11-10T21:43:31.312Z,98981.91
2022-11-10T21:46:17.667Z,98983.94
2022-11-10T21:49:07.436Z,98979.91
2022-11-10T21:51:53.694Z,98986.13
2022-11-10T21:54:39.069Z,98986.56
2022-11-10T21:57:24.582Z,98983.09
2022-11-10T22:00:11.625Z,98988.13
2022-11-10T22:03:01.675Z,98990.91
2022-11-10T22:05:47.023Z,98994.00
2022-11-10T22:08:32.971Z,98996.25
2022-11-10T22:11:39.231Z,98998.03
2022-11-10T22:14:43.379Z,98992.56
2022-11-10T22:17:46.977Z,98992.44
2022-11-10T22:20:32.165Z,98977.03
2022-11-10T22:23:17.509Z,98985.25
2022-11-10T22:26:03.007Z,98987.66
2022-11-10T22:28:48.525Z,98989.53
2022-11-10T22:31:34.025Z,98980.59
2022-11-10T22:34:19.978Z,98984.69
2022-11-10T22:37:05.301Z,98983.84
2022-11-10T22:40:09.166Z,98983.50
2022-11-10T22:43:12.644Z,98982.47
2022-11-10T22:45:57.774Z,98979.63
2022-11-10T22:48:43.200Z,98980.09
2022-11-10T22:51:30.253Z,98980.84
2022-11-10T22:54:17.192Z,98984.66
2022-11-10T22:57:02.690Z,98985.03
2022-11-10T22:59:48.037Z,98984.91
2022-11-10T23:02:33.580Z,98986.84
2022-11-10T23:05:19.088Z,98985.88
2022-11-10T23:08:04.301Z,98981.69
2022-11-10T23:10:49.679Z,98981.09
2022-11-10T23:13:36.724Z,98995.31
2022-11-10T23:16:32.393Z,98994.00
2022-11-10T23:19:17.504Z,98989.09
2022-11-10T23:22:02.755Z,98988.34
2022-11-10T23:24:49.824Z,98991.44
2022-11-10T23:27:36.802Z,99002.66
2022-11-10T23:30:24.288Z,98998.59
2022-11-10T23:33:09.256Z,98999.91
2022-11-10T23:35:54.587Z,99000.66
2022-11-10T23:38:40.753Z,98999.69
2022-11-10T23:41:26.808Z,99001.59
2022-11-10T23:44:12.312Z,98997.78
2022-11-10T23:46:57.669Z,98992.03
2022-11-10T23:49:43.013Z,99003.75
2022-11-10T23:52:28.140Z,98993.94
2022-11-10T23:55:13.538Z,98994.19
2022-11-10T23:57:59.068Z,98986.09
